Time;durP1;ratioP1;P1;durP2;ratioP2;P2;SDS_P1;SDS_P2;PMS_P1;PMS_P2;Temp;Humidity;BMP_temperature;BMP_pressure;BME280_temperature;BME280_humidity;BME280_pressure;Samples;Min_cycle;Max_cycle;Signal;HPM_P1;HPM_P2
2022/07/30 00:01:07;;;;;;;;;;;;;;;19.65;100.00;99254.41;4970741;28;19926;-81
2022/07/30 00:03:34;;;;;;;;;;;;;;;19.75;100.00;99257.19;4970988;28;19930;-81
2022/07/30 00:06:01;;;;;;;;;;;;;;;19.92;100.00;99255.50;4971829;28;19961;-81
2022/07/30 00:08:29;;;;;;;;;;;;;;;19.95;100.00;99254.56;4940055;28;19927;-81
2022/07/30 00:10:56;;;;;;;;;;;;;;;19.79;100.00;99254.94;4974518;28;19927;-81
2022/07/30 00:13:23;;;;;;;;;;;;;;;19.47;100.00;99253.69;4974318;28;19926;-81
2022/07/30 00:15:50;;;;;;;;;;;;;;;19.00;100.00;99262.81;4941900;28;19933;-81
2022/07/30 00:18:17;;;;;;;;;;;;;;;19.25;100.00;99250.31;4974087;28;19930;-81
2022/07/30 00:20:44;;;;;;;;;;;;;;;19.56;100.00;99245.16;4974244;28;20361;-81
2022/07/30 00:23:11;;;;;;;;;;;;;;;19.69;100.00;99242.88;4973788;28;20429;-81
2022/07/30 00:25:38;;;;;;;;;;;;;;;19.83;100.00;99235.72;4975375;28;19927;-81
2022/07/30 00:28:06;;;;;;;;;;;;;;;19.89;100.00;99233.78;4958075;28;19926;-81
2022/07/30 00:30:33;;;;;;;;;;;;;;;20.00;100.00;99228.34;4973623;28;20025;-81
2022/07/30 00:33:00;;;;;;;;;;;;;;;20.08;100.00;99224.69;4957901;28;20034;-81
2022/07/30 00:35:28;;;;;;;;;;;;;;;20.12;100.00;99218.78;4975101;28;19927;-81
2022/07/30 00:37:55;;;;;;;;;;;;;;;20.10;100.00;99218.53;4973513;28;19933;-81
2022/07/30 00:40:22;;;;;;;;;;;;;;;19.91;100.00;99214.22;4973535;28;19926;-81
2022/07/30 00:42:49;;;;;;;;;;;;;;;20.04;100.00;99214.78;4957441;28;19926;-81
2022/07/30 00:45:17;;;;;;;;;;;;;;;19.82;100.00;99214.28;4973788;28;19933;-81
2022/07/30 00:47:44;;;;;;;;;;;;;;;19.58;100.00;99215.06;4973671;28;19980;-81
2022/07/30 00:50:12;;;;;;;;;;;;;;;19.29;100.00;99217.75;4973639;28;20439;-81
2022/07/30 00:52:40;;;;;;;;;;;;;;;19.55;100.00;99210.34;4957206;28;19979;-81
2022/07/30 00:55:09;;;;;;;;;;;;;;;19.65;100.00;99214.72;4957881;28;19934;-81
2022/07/30 00:57:36;;;;;;;;;;;;;;;19.73;100.00;99208.69;4958028;28;20452;-81
2022/07/30 01:00:06;;;;;;;;;;;;;;;19.72;100.00;99207.88;4957517;28;19926;-81
2022/07/30 01:02:33;;;;;;;;;;;;;;;19.86;100.00;99206.41;4973074;28;20439;-81
2022/07/30 01:05:00;;;;;;;;;;;;;;;19.96;100.00;99200.19;5041204;28;19926;-81
2022/07/30 01:07:27;;;;;;;;;;;;;;;20.08;100.00;99189.84;4957544;28;20374;-81
2022/07/30 01:09:54;;;;;;;;;;;;;;;19.97;100.00;99195.28;4973238;28;19926;-81
2022/07/30 01:12:23;;;;;;;;;;;;;;;19.81;100.00;99198.56;4973345;28;19933;-81
2022/07/30 01:14:51;;;;;;;;;;;;;;;19.96;100.00;99196.56;4957110;28;20005;-81
2022/07/30 01:17:19;;;;;;;;;;;;;;;19.89;100.00;99194.09;4956894;28;19926;-81
2022/07/30 01:19:47;;;;;;;;;;;;;;;19.84;100.00;99191.91;4941111;28;20277;-81
2022/07/30 01:22:14;;;;;;;;;;;;;;;19.59;100.00;99188.28;4956777;28;19934;-81
2022/07/30 01:24:44;;;;;;;;;;;;;;;19.89;100.00;99177.84;4957238;28;19926;-81
2022/07/30 01:27:13;;;;;;;;;;;;;;;19.98;100.00;99185.53;4956923;28;19927;-81
2022/07/30 01:29:44;;;;;;;;;;;;;;;19.86;100.00;99178.06;4972912;28;20021;-81
2022/07/30 01:32:12;;;;;;;;;;;;;;;19.49;100.00;99172.59;4973949;28;20404;-81
2022/07/30 01:34:40;;;;;;;;;;;;;;;19.16;100.00;99176.69;4956894;28;20349;-81
2022/07/30 01:37:07;;;;;;;;;;;;;;;19.52;100.00;99182.19;4972676;28;19926;-80
2022/07/30 01:39:36;;;;;;;;;;;;;;;18.99;100.00;99184.75;4956865;28;19934;-81
2022/07/30 01:42:06;;;;;;;;;;;;;;;19.14;100.00;99182.84;4971173;28;20456;-81
2022/07/30 01:44:33;;;;;;;;;;;;;;;19.10;100.00;99178.63;4956552;28;20464;-81
2022/07/30 01:47:01;;;;;;;;;;;;;;;19.38;100.00;99178.03;4955845;28;20396;-81
2022/07/30 01:49:30;;;;;;;;;;;;;;;19.49;100.00;99171.84;4955809;28;19933;-80
2022/07/30 01:51:59;;;;;;;;;;;;;;;19.48;100.00;99171.03;4971634;28;20288;-81
2022/07/30 01:54:27;;;;;;;;;;;;;;;19.09;100.00;99166.50;4972518;28;19934;-81
2022/07/30 01:56:56;;;;;;;;;;;;;;;19.26;100.00;99170.50;4955849;28;19926;-81
2022/07/30 01:59:24;;;;;;;;;;;;;;;19.27;100.00;99172.09;4940222;28;19930;-81
2022/07/30 02:01:51;;;;;;;;;;;;;;;19.21;100.00;99171.16;4956159;28;19976;-81
2022/07/30 02:04:19;;;;;;;;;;;;;;;19.12;100.00;99164.75;4956422;28;19933;-81
2022/07/30 02:06:51;;;;;;;;;;;;;;;19.04;100.00;99169.16;4972436;28;19930;-80
2022/07/30 02:09:21;;;;;;;;;;;;;;;19.26;100.00;99162.00;4972105;28;19926;-79
2022/07/30 02:14:42;;;;;;;;;;;;;;;19.40;100.00;99158.47;4973368;28;19926;-80
2022/07/30 02:17:13;;;;;;;;;;;;;;;19.06;100.00;99161.00;4956002;28;20030;-80
2022/07/30 02:19:42;;;;;;;;;;;;;;;19.11;100.00;99158.31;4972279;28;19926;-80
2022/07/30 02:22:12;;;;;;;;;;;;;;;18.39;100.00;99158.50;4956169;28;20440;-81
2022/07/30 02:24:41;;;;;;;;;;;;;;;18.37;100.00;99158.22;5022757;28;19977;-80
2022/07/30 02:27:14;;;;;;;;;;;;;;;18.90;100.00;99159.31;4971871;28;19934;-80
2022/07/30 02:29:42;;;;;;;;;;;;;;;19.19;100.00;99165.16;4939907;28;19979;-80
2022/07/30 02:32:13;;;;;;;;;;;;;;;19.33;100.00;99161.69;4970946;28;19926;-80
2022/07/30 02:34:43;;;;;;;;;;;;;;;19.40;100.00;99157.72;4956561;28;19933;-80
2022/07/30 02:37:13;;;;;;;;;;;;;;;19.36;100.00;99152.22;4971748;28;19926;-81
2022/07/30 02:39:42;;;;;;;;;;;;;;;19.10;100.00;99144.63;4971912;28;20415;-81
2022/07/30 02:42:11;;;;;;;;;;;;;;;19.34;100.00;99151.16;4971567;28;19926;-81
2022/07/30 02:44:41;;;;;;;;;;;;;;;19.10;100.00;99139.72;4971659;28;19926;-81
2022/07/30 02:47:09;;;;;;;;;;;;;;;18.78;100.00;99132.00;4955773;28;19926;-80
2022/07/30 02:49:55;;;;;;;;;;;;;;;18.98;100.00;99132.22;4958461;28;20029;-80
2022/07/30 02:52:23;;;;;;;;;;;;;;;18.98;100.00;99137.91;4955591;28;20504;-80
2022/07/30 02:54:51;;;;;;;;;;;;;;;19.24;100.00;99127.69;4939756;28;19933;-80
2022/07/30 02:57:20;;;;;;;;;;;;;;;19.38;100.00;99132.69;4955439;28;20340;-80
2022/07/30 02:59:48;;;;;;;;;;;;;;;19.55;100.00;99131.00;4971620;28;20016;-80
2022/07/30 03:02:16;;;;;;;;;;;;;;;19.62;100.00;99124.97;4955151;28;19926;-80
2022/07/30 03:04:44;;;;;;;;;;;;;;;19.56;100.00;99126.91;4939600;28;19926;-80
2022/07/30 03:07:11;;;;;;;;;;;;;;;19.65;100.00;99118.34;4971571;28;19926;-80
2022/07/30 03:09:40;;;;;;;;;;;;;;;19.47;100.00;99118.47;4955370;28;20029;-80
2022/07/30 03:12:09;;;;;;;;;;;;;;;19.61;100.00;99114.88;4972663;28;19933;-80
2022/07/30 03:14:36;;;;;;;;;;;;;;;19.06;100.00;99119.31;4955472;28;20385;-80
2022/07/30 03:17:05;;;;;;;;;;;;;;;19.08;100.00;99113.97;4939559;28;19926;-80
2022/07/30 03:19:35;;;;;;;;;;;;;;;19.06;100.00;99119.31;4955530;28;20439;-80
2022/07/30 03:22:05;;;;;;;;;;;;;;;19.12;100.00;99116.59;4971331;28;19933;-80
2022/07/30 03:24:34;;;;;;;;;;;;;;;19.19;100.00;99108.53;4939236;28;19951;-80
2022/07/30 03:27:02;;;;;;;;;;;;;;;19.26;100.00;99110.22;4971235;28;20381;-80
2022/07/30 03:29:30;;;;;;;;;;;;;;;18.93;100.00;99112.28;4971079;28;20411;-80
2022/07/30 03:31:58;;;;;;;;;;;;;;;19.08;100.00;99116.78;4971339;28;19926;-80
2022/07/30 03:34:25;;;;;;;;;;;;;;;19.04;100.00;99104.84;4955104;28;19966;-80
2022/07/30 03:36:53;;;;;;;;;;;;;;;19.11;100.00;99118.66;4955083;28;19926;-80
2022/07/30 03:39:21;;;;;;;;;;;;;;;19.23;100.00;99119.69;4970894;28;19949;-80
2022/07/30 03:41:48;;;;;;;;;;;;;;;19.08;100.00;99119.63;4955070;28;19976;-80
2022/07/30 03:44:16;;;;;;;;;;;;;;;19.36;100.00;99111.75;4957003;28;19971;-80
2022/07/30 03:46:44;;;;;;;;;;;;;;;19.59;100.00;99102.47;4958397;28;19926;-80
2022/07/30 03:49:12;;;;;;;;;;;;;;;19.66;100.00;99100.06;4958576;28;19926;-80
2022/07/30 03:51:45;;;;;;;;;;;;;;;19.67;100.00;99106.53;4943200;28;20041;-80
2022/07/30 03:54:15;;;;;;;;;;;;;;;19.70;100.00;99100.66;4958226;28;20050;-80
2022/07/30 03:57:13;;;;;;;;;;;;;;;19.33;100.00;99099.34;4970367;28;19926;-80
2022/07/30 03:59:42;;;;;;;;;;;;;;;19.15;100.00;99099.44;4974363;28;19930;-80
2022/07/30 04:02:09;;;;;;;;;;;;;;;19.48;100.00;99091.69;4973974;28;19926;-80
2022/07/30 04:05:15;;;;;;;;;;;;;;;19.56;100.00;99098.56;4953785;29;20302;-80
2022/07/30 04:07:44;;;;;;;;;;;;;;;19.72;100.00;99100.16;5021725;28;19927;-80
2022/07/30 04:10:13;;;;;;;;;;;;;;;19.68;100.00;99094.69;4937920;29;19933;-80
2022/07/30 04:13:06;;;;;;;;;;;;;;;19.57;100.00;99102.97;4976878;28;19930;-80
2022/07/30 04:15:40;;;;;;;;;;;;;;;19.80;100.00;99095.69;4921896;29;19966;-80
2022/07/30 04:18:10;;;;;;;;;;;;;;;19.89;100.00;99097.69;4938038;29;20420;-80
2022/07/30 04:20:42;;;;;;;;;;;;;;;19.94;100.00;99094.16;4922268;29;19927;-80
2022/07/30 04:23:10;;;;;;;;;;;;;;;19.66;100.00;99085.88;4937761;29;20275;-80
2022/07/30 04:25:42;;;;;;;;;;;;;;;19.57;100.00;99094.47;4937532;29;19926;-80
2022/07/30 04:28:10;;;;;;;;;;;;;;;19.73;100.00;99089.63;4937661;29;19934;-80
2022/07/30 04:30:37;;;;;;;;;;;;;;;19.79;100.00;99091.31;4937706;29;19926;-80
2022/07/30 04:33:06;;;;;;;;;;;;;;;19.85;100.00;99091.41;4921928;29;19933;-80
2022/07/30 04:35:52;;;;;;;;;;;;;;;19.96;100.00;99091.63;4951374;28;19926;-80
2022/07/30 04:38:26;;;;;;;;;;;;;;;20.19;100.00;99088.75;4973524;28;20016;-80
2022/07/30 04:40:54;;;;;;;;;;;;;;;20.18;100.00;99089.22;4973763;28;19926;-80
2022/07/30 04:43:21;;;;;;;;;;;;;;;20.24;100.00;99085.25;4957593;28;20359;-80
2022/07/30 04:45:48;;;;;;;;;;;;;;;19.90;100.00;99085.06;4973686;28;19930;-80
2022/07/30 04:48:15;;;;;;;;;;;;;;;19.70;100.00;99092.16;4973506;28;19926;-81
2022/07/30 04:51:10;;;;;;;;;;;;;;;20.14;100.00;99094.31;4965012;28;20290;-81
2022/07/30 04:53:39;;;;;;;;;;;;;;;20.31;100.00;99089.75;4957395;28;19931;-81
2022/07/30 04:56:07;;;;;;;;;;;;;;;20.39;100.00;99086.03;4940913;28;19988;-81
2022/07/30 04:58:36;;;;;;;;;;;;;;;20.49;100.00;99083.88;4957323;28;20029;-81
2022/07/30 05:01:03;;;;;;;;;;;;;;;20.34;100.00;99083.09;4957393;28;19966;-80
2022/07/30 05:03:33;;;;;;;;;;;;;;;20.59;100.00;99082.50;4957309;28;20259;-80
2022/07/30 05:06:01;;;;;;;;;;;;;;;20.59;100.00;99079.66;4956933;28;19926;-80
2022/07/30 05:08:31;;;;;;;;;;;;;;;20.43;100.00;99074.47;4957277;28;19967;-80
2022/07/30 05:11:03;;;;;;;;;;;;;;;20.08;100.00;99077.19;4956971;28;19930;-81
2022/07/30 05:13:30;;;;;;;;;;;;;;;20.51;100.00;99078.47;4957284;28;19926;-81
2022/07/30 05:15:57;;;;;;;;;;;;;;;20.52;100.00;99082.91;4940898;28;20048;-80
2022/07/30 05:18:25;;;;;;;;;;;;;;;20.66;100.00;99077.19;4973106;28;20395;-80
2022/07/30 05:20:52;;;;;;;;;;;;;;;20.69;100.00;99081.13;4973275;28;20020;-78
2022/07/30 05:23:22;;;;;;;;;;;;;;;20.51;100.00;99073.59;4972549;28;19934;-78
2022/07/30 05:26:04;;;;;;;;;;;;;;;20.86;100.00;99073.63;4972959;28;20389;-82
2022/07/30 05:28:43;;;;;;;;;;;;;;;20.83;100.00;99085.97;4956959;28;20339;-81
2022/07/30 05:31:12;;;;;;;;;;;;;;;20.62;100.00;99070.16;4972659;28;20278;-81
2022/07/30 05:33:40;;;;;;;;;;;;;;;20.82;100.00;99084.41;4972575;28;19933;-81
2022/07/30 05:36:09;;;;;;;;;;;;;;;20.87;100.00;99080.91;4940765;28;19935;-81
2022/07/30 05:38:38;;;;;;;;;;;;;;;20.79;100.00;99086.19;4972539;28;20028;-80
2022/07/30 05:41:32;;;;;;;;;;;;;;;20.90;100.00;99085.59;4972716;28;19933;-81
2022/07/30 05:43:59;;;;;;;;;;;;;;;21.04;100.00;99073.41;4973363;28;19926;-81
2022/07/30 05:46:29;;;;;;;;;;;;;;;21.12;100.00;99081.06;4973907;28;20374;-81
2022/07/30 05:48:57;;;;;;;;;;;;;;;21.09;100.00;99081.25;4956457;28;20514;-81
2022/07/30 05:51:24;;;;;;;;;;;;;;;21.06;100.00;99087.91;4972267;28;19976;-81
2022/07/30 05:53:51;;;;;;;;;;;;;;;20.98;100.00;99087.53;4972611;28;20009;-81
2022/07/30 05:56:44;;;;;;;;;;;;;;;20.86;100.00;99091.47;4972170;28;20064;-80
2022/07/30 05:59:28;;;;;;;;;;;;;;;20.87;100.00;99089.41;4942771;28;20479;-80
2022/07/30 06:02:05;;;;;;;;;;;;;;;21.02;100.00;99082.44;4956036;28;19926;-81
2022/07/30 06:04:50;;;;;;;;;;;;;;;20.71;100.00;99081.41;4971848;28;19949;-81
2022/07/30 06:07:17;;;;;;;;;;;;;;;20.59;100.00;99071.13;4972087;28;19968;-81
2022/07/30 06:09:45;;;;;;;;;;;;;;;20.12;100.00;99076.97;4972281;28;20524;-80
2022/07/30 06:12:13;;;;;;;;;;;;;;;20.15;100.00;99076.03;4956314;28;19930;-81
2022/07/30 06:14:41;;;;;;;;;;;;;;;19.86;100.00;99081.66;4955964;28;19926;-80
2022/07/30 06:17:14;;;;;;;;;;;;;;;19.96;100.00;99072.56;4972208;28;19930;-80
2022/07/30 06:20:05;;;;;;;;;;;;;;;19.94;100.00;99071.47;5049407;28;19925;-80
2022/07/30 06:22:45;;;;;;;;;;;;;;;19.72;100.00;99073.88;4980024;28;19927;-80
2022/07/30 06:25:20;;;;;;;;;;;;;;;19.78;100.00;99075.53;4952465;28;19926;-80
2022/07/30 06:27:47;;;;;;;;;;;;;;;19.52;100.00;99074.53;4941835;29;19970;-80
2022/07/30 06:30:14;;;;;;;;;;;;;;;19.39;100.00;99071.94;4936825;29;19933;-80
2022/07/30 06:32:44;;;;;;;;;;;;;;;19.48;100.00;99069.03;4955702;28;19927;-81
2022/07/30 06:35:11;;;;;;;;;;;;;;;19.69;100.00;99067.91;4955748;28;19932;-80
2022/07/30 06:37:39;;;;;;;;;;;;;;;19.63;100.00;99069.06;4971327;28;20504;-80
2022/07/30 06:40:06;;;;;;;;;;;;;;;19.87;100.00;99066.19;4978879;28;20016;-80
2022/07/30 06:42:51;;;;;;;;;;;;;;;19.61;100.00;99066.72;4936694;29;20024;-80
2022/07/30 06:45:42;;;;;;;;;;;;;;;19.62;100.00;99076.81;4952843;28;19927;-80
2022/07/30 06:48:16;;;;;;;;;;;;;;;19.76;100.00;99077.31;4960350;28;20350;-80
2022/07/30 06:50:43;;;;;;;;;;;;;;;20.01;100.00;99076.78;4971435;28;19933;-80
2022/07/30 06:53:10;;;;;;;;;;;;;;;20.46;100.00;99071.44;4955557;28;19926;-80
2022/07/30 06:56:10;;;;;;;;;;;;;;;20.22;100.00;99082.09;4913280;29;20018;-81
2022/07/30 06:58:45;;;;;;;;;;;;;;;20.45;100.00;99084.06;4913492;29;19927;-81
2022/07/30 07:01:30;;;;;;;;;;;;;;;20.48;100.00;99076.63;4897392;29;20026;-81
2022/07/30 07:03:58;;;;;;;;;;;;;;;20.57;100.00;99080.13;4897373;29;19932;-81
2022/07/30 07:06:25;;;;;;;;;;;;;;;20.63;100.00;99078.19;4913177;29;19934;-81
2022/07/30 07:08:52;;;;;;;;;;;;;;;20.45;100.00;99067.03;4897620;29;19927;-81
2022/07/30 07:11:27;;;;;;;;;;;;;;;20.61;100.00;99069.38;4897462;29;19927;-81
2022/07/30 07:13:56;;;;;;;;;;;;;;;20.45;100.00;99064.19;4897625;29;19949;-81
2022/07/30 07:16:31;;;;;;;;;;;;;;;20.50;100.00;99068.41;4897442;29;19928;-81
2022/07/30 07:19:05;;;;;;;;;;;;;;;20.66;100.00;99071.50;4881290;29;19981;-80
2022/07/30 07:21:32;;;;;;;;;;;;;;;20.63;100.00;99071.72;4892725;28;20410;-80
2022/07/30 07:24:01;;;;;;;;;;;;;;;20.65;100.00;99081.31;4875202;28;19954;-81
2022/07/30 07:26:54;;;;;;;;;;;;;;;21.22;100.00;99076.00;4900306;29;19953;-80
2022/07/30 07:29:22;;;;;;;;;;;;;;;21.27;100.00;99075.31;4896981;28;20379;-80
2022/07/30 07:31:49;;;;;;;;;;;;;;;21.40;100.00;99084.28;4941783;28;20020;-80
2022/07/30 07:34:17;;;;;;;;;;;;;;;21.24;100.00;99070.63;4954858;28;20397;-81
2022/07/30 07:36:45;;;;;;;;;;;;;;;21.30;100.00;99069.41;4950041;28;19931;-81
2022/07/30 07:39:13;;;;;;;;;;;;;;;21.48;100.00;99071.19;4967779;28;19926;-80
2022/07/30 07:41:42;;;;;;;;;;;;;;;21.32;100.00;99063.25;4968033;28;19999;-82
2022/07/30 07:44:09;;;;;;;;;;;;;;;21.49;100.00;99072.00;4949766;28;20397;-81
2022/07/30 07:46:37;;;;;;;;;;;;;;;21.79;100.00;99068.53;4950180;28;19962;-81
2022/07/30 07:49:05;;;;;;;;;;;;;;;21.69;100.00;99072.00;4965432;28;19926;-80
2022/07/30 07:51:37;;;;;;;;;;;;;;;21.54;100.00;99060.69;4935310;28;20444;-81
2022/07/30 07:54:07;;;;;;;;;;;;;;;21.27;100.00;99061.88;4936391;28;20411;-80
2022/07/30 07:56:47;;;;;;;;;;;;;;;21.78;100.00;99063.34;4948600;28;20439;-81
2022/07/30 07:59:15;;;;;;;;;;;;;;;21.99;100.00;99062.03;4965769;28;19938;-83
2022/07/30 08:01:45;;;;;;;;;;;;;;;21.62;100.00;99053.28;4949547;28;19927;-83
2022/07/30 08:04:18;;;;;;;;;;;;;;;21.91;100.00;99061.69;4965280;28;19934;-83
2022/07/30 08:07:08;;;;;;;;;;;;;;;21.92;100.00;99062.44;4965648;28;19926;-84
2022/07/30 08:09:54;;;;;;;;;;;;;;;21.61;100.00;99065.94;4969108;28;20507;-82
2022/07/30 08:12:28;;;;;;;;;;;;;;;21.70;100.00;99050.78;4951465;28;19953;-81
2022/07/30 08:15:13;;;;;;;;;;;;;;;21.57;100.00;99056.06;4967933;28;19956;-81
2022/07/30 08:18:00;;;;;;;;;;;;;;;21.52;100.00;99056.78;4954836;28;20385;-81
2022/07/30 08:20:46;;;;;;;;;;;;;;;21.89;100.00;99058.53;4949512;28;19931;-81
2022/07/30 08:23:20;;;;;;;;;;;;;;;21.71;100.00;99053.13;4964667;28;19950;-82
2022/07/30 08:25:49;;;;;;;;;;;;;;;22.07;100.00;99069.59;4929753;28;19930;-78
2022/07/30 08:28:16;;;;;;;;;;;;;;;22.18;100.00;99052.66;4964138;28;19931;-82
2022/07/30 08:30:46;;;;;;;;;;;;;;;22.15;100.00;99061.41;4968339;28;19926;-83
2022/07/30 08:33:13;;;;;;;;;;;;;;;22.35;100.00;99050.75;4954259;28;20017;-80
2022/07/30 08:35:40;;;;;;;;;;;;;;;22.38;100.00;99049.75;4970723;28;20274;-80
2022/07/30 08:38:08;;;;;;;;;;;;;;;22.25;100.00;99048.59;4969678;28;19926;-79
2022/07/30 08:40:35;;;;;;;;;;;;;;;22.30;100.00;99047.84;4970023;28;19926;-79
2022/07/30 08:43:05;;;;;;;;;;;;;;;22.24;100.00;99041.31;4957756;28;19926;-79
2022/07/30 08:45:33;;;;;;;;;;;;;;;22.57;100.00;99042.41;4949491;28;19931;-79
2022/07/30 08:48:34;;;;;;;;;;;;;;;22.96;100.00;99037.78;4962068;28;19930;-80
2022/07/30 08:51:01;;;;;;;;;;;;;;;22.89;100.00;99041.13;4970152;28;19930;-81
2022/07/30 08:53:34;;;;;;;;;;;;;;;22.69;100.00;99041.22;4970895;28;19933;-82
2022/07/30 08:56:03;;;;;;;;;;;;;;;22.50;100.00;99051.44;4970394;28;19933;-82
2022/07/30 08:58:34;;;;;;;;;;;;;;;22.61;100.00;99050.75;4953858;28;19926;-82
2022/07/30 09:01:02;;;;;;;;;;;;;;;22.33;100.00;99047.63;4970657;28;19933;-82
2022/07/30 09:03:31;;;;;;;;;;;;;;;22.54;100.00;99051.19;4969901;28;19933;-82
2022/07/30 09:06:01;;;;;;;;;;;;;;;22.73;100.00;99047.47;4969447;28;19933;-82
2022/07/30 09:08:28;;;;;;;;;;;;;;;23.03;100.00;99042.25;4969490;28;19933;-82
2022/07/30 09:10:56;;;;;;;;;;;;;;;23.00;100.00;99049.75;4954227;28;20024;-82
2022/07/30 09:13:27;;;;;;;;;;;;;;;22.57;100.00;99056.66;4969853;28;19926;-82
2022/07/30 09:15:56;;;;;;;;;;;;;;;22.11;100.00;99067.34;4969910;28;20393;-82
2022/07/30 09:18:31;;;;;;;;;;;;;;;22.35;100.00;99050.75;4970328;28;19932;-82
2022/07/30 09:21:00;;;;;;;;;;;;;;;22.64;100.00;99056.19;4971407;28;20404;-82
2022/07/30 09:23:27;;;;;;;;;;;;;;;22.70;100.00;99059.84;4953725;28;20385;-82
2022/07/30 09:26:24;;;;;;;;;;;;;;;22.47;100.00;99060.97;4969769;28;19931;-82
2022/07/30 09:29:19;;;;;;;;;;;;;;;23.08;100.00;99056.50;4969441;28;19926;-82
2022/07/30 09:32:21;;;;;;;;;;;;;;;23.38;100.00;99056.19;4947983;29;19927;-82
2022/07/30 09:35:16;;;;;;;;;;;;;;;22.67;100.00;99060.13;4920966;28;19950;-83
2022/07/30 09:38:05;;;;;;;;;;;;;;;23.10;100.00;99064.56;4942986;28;20371;-82
2022/07/30 09:40:51;;;;;;;;;;;;;;;23.06;100.00;99064.81;4920015;28;20477;-81
2022/07/30 09:43:46;;;;;;;;;;;;;;;23.23;100.00;99062.06;4945405;28;19934;-84
2022/07/30 09:46:20;;;;;;;;;;;;;;;22.82;100.00;99067.22;4925635;28;19935;-85
2022/07/30 09:48:48;;;;;;;;;;;;;;;22.55;100.00;99069.84;4923466;28;19937;-84
2022/07/30 09:51:16;;;;;;;;;;;;;;;22.56;100.00;99074.25;4929252;29;19927;-84
2022/07/30 09:54:00;;;;;;;;;;;;;;;23.02;100.00;99069.94;4948864;29;19927;-84
2022/07/30 09:56:29;;;;;;;;;;;;;;;22.69;100.00;99083.16;4929366;29;19931;-85
2022/07/30 09:58:58;;;;;;;;;;;;;;;22.81;100.00;99082.75;4898309;29;20383;-85
2022/07/30 10:01:25;;;;;;;;;;;;;;;22.52;100.00;99083.00;4995754;28;20026;-85
2022/07/30 10:04:21;;;;;;;;;;;;;;;22.35;100.00;99079.22;4949113;29;19926;-85
2022/07/30 10:07:01;;;;;;;;;;;;;;;22.61;100.00;99085.69;4940299;28;19926;-84
2022/07/30 10:09:35;;;;;;;;;;;;;;;22.98;100.00;99075.09;4983852;28;20301;-85
2022/07/30 10:12:03;;;;;;;;;;;;;;;22.68;100.00;99090.94;4952818;28;20000;-85
2022/07/30 10:14:33;;;;;;;;;;;;;;;23.16;100.00;99090.25;4936713;28;19930;-86
2022/07/30 10:17:02;;;;;;;;;;;;;;;23.08;100.00;99090.72;4967747;28;19930;-84
2022/07/30 10:19:32;;;;;;;;;;;;;;;22.81;100.00;99094.13;4967390;28;19934;-84
2022/07/30 10:22:33;;;;;;;;;;;;;;;23.11;100.00;99101.09;4947981;29;19931;-84
2022/07/30 10:25:29;;;;;;;;;;;;;;;23.37;100.00;99083.91;4989057;28;19930;-84
2022/07/30 10:28:16;;;;;;;;;;;;;;;23.15;100.00;99095.16;4972833;28;19953;-84
2022/07/30 10:30:44;;;;;;;;;;;;;;;23.44;100.00;99091.22;4989076;28;19988;-84
2022/07/30 10:33:11;;;;;;;;;;;;;;;22.95;100.00;99098.91;4989805;28;19933;-84
2022/07/30 10:35:38;;;;;;;;;;;;;;;22.92;100.00;99105.63;4989406;28;20032;-83
2022/07/30 10:38:08;;;;;;;;;;;;;;;22.91;100.00;99092.69;4988749;28;19925;-83
2022/07/30 10:40:39;;;;;;;;;;;;;;;23.19;100.00;99103.50;4989040;28;19926;-84
2022/07/30 10:43:23;;;;;;;;;;;;;;;22.95;100.00;99096.06;4989035;28;19933;-84
2022/07/30 10:45:50;;;;;;;;;;;;;;;22.89;100.00;99103.00;4955061;28;19926;-84
2022/07/30 10:48:18;;;;;;;;;;;;;;;22.96;100.00;99091.16;4969979;28;19933;-84
2022/07/30 10:50:50;;;;;;;;;;;;;;;22.95;100.00;99081.81;4972254;28;20023;-83
2022/07/30 10:53:32;;;;;;;;;;;;;;;23.20;100.00;99088.72;4988784;28;20325;-84
2022/07/30 10:56:14;;;;;;;;;;;;;;;23.26;100.00;99088.78;4974863;28;19936;-84
2022/07/30 10:59:01;;;;;;;;;;;;;;;23.50;100.00;99074.91;4924721;28;19927;-83
2022/07/30 11:01:46;;;;;;;;;;;;;;;23.53;100.00;99088.94;4913247;28;19976;-85
2022/07/30 11:04:18;;;;;;;;;;;;;;;23.40;100.00;99087.84;4952346;28;19934;-85
2022/07/30 11:06:45;;;;;;;;;;;;;;;23.37;100.00;99086.00;4952461;28;19926;-84
2022/07/30 11:09:33;;;;;;;;;;;;;;;23.67;100.00;99082.28;4969034;28;19965;-84
2022/07/30 11:12:00;;;;;;;;;;;;;;;23.70;100.00;99094.72;4952031;28;20009;-85
2022/07/30 11:14:48;;;;;;;;;;;;;;;23.11;100.00;99095.38;4967888;28;19976;-86
2022/07/30 11:17:16;;;;;;;;;;;;;;;22.85;100.00;99086.16;4958316;28;19933;-85
2022/07/30 11:20:10;;;;;;;;;;;;;;;23.54;100.00;99090.50;4967671;28;19926;-85
2022/07/30 11:22:43;;;;;;;;;;;;;;;23.46;100.00;99085.78;4951559;28;20016;-85
2022/07/30 11:25:31;;;;;;;;;;;;;;;23.04;100.00;99084.47;4969375;28;20026;-85
2022/07/30 11:27:59;;;;;;;;;;;;;;;23.44;100.00;99088.38;4948981;28;19927;-85
2022/07/30 11:30:31;;;;;;;;;;;;;;;23.69;100.00;99073.22;4948747;28;19927;-85
2022/07/30 11:33:04;;;;;;;;;;;;;;;23.77;100.00;99074.25;4948315;28;19933;-85
2022/07/30 11:35:31;;;;;;;;;;;;;;;23.39;100.00;99072.00;4964544;28;19926;-86
2022/07/30 11:38:17;;;;;;;;;;;;;;;23.55;100.00;99077.81;4932760;29;19933;-85
2022/07/30 11:40:50;;;;;;;;;;;;;;;23.39;100.00;99075.63;4949529;29;19933;-85
2022/07/30 11:43:23;;;;;;;;;;;;;;;23.39;100.00;99077.69;4932574;29;20397;-85
2022/07/30 11:46:22;;;;;;;;;;;;;;;23.66;100.00;99075.00;4935887;28;19926;-85
2022/07/30 11:48:55;;;;;;;;;;;;;;;23.84;100.00;99074.53;4951076;28;19930;-85
2022/07/30 11:51:22;;;;;;;;;;;;;;;23.69;100.00;99079.66;4935382;28;19926;-85
2022/07/30 11:54:03;;;;;;;;;;;;;;;24.39;100.00;99066.16;4967610;28;19926;-84
2022/07/30 11:56:30;;;;;;;;;;;;;;;24.86;100.00;99070.09;4967418;28;19930;-84
2022/07/30 11:59:01;;;;;;;;;;;;;;;24.60;100.00;99075.25;4968856;28;19961;-85
2022/07/30 12:01:29;;;;;;;;;;;;;;;24.74;100.00;99072.19;4968424;28;20049;-85
2022/07/30 12:03:56;;;;;;;;;;;;;;;24.60;100.00;99069.53;4968285;28;19926;-84
2022/07/30 12:06:23;;;;;;;;;;;;;;;24.35;100.00;99062.78;4955067;28;19969;-85
2022/07/30 12:08:52;;;;;;;;;;;;;;;24.04;100.00;99068.69;4971727;28;19934;-85
2022/07/30 12:11:22;;;;;;;;;;;;;;;24.16;100.00;99063.75;4970299;28;19926;-84
2022/07/30 12:13:58;;;;;;;;;;;;;;;23.75;100.00;99068.31;4972134;28;19933;-84
2022/07/30 12:16:26;;;;;;;;;;;;;;;23.99;100.00;99060.09;4972065;28;19933;-85
2022/07/30 12:18:54;;;;;;;;;;;;;;;24.57;100.00;99071.34;4955082;28;20025;-84
2022/07/30 12:21:23;;;;;;;;;;;;;;;24.42;100.00;99067.19;4954487;28;20021;-84
2022/07/30 12:23:54;;;;;;;;;;;;;;;24.07;100.00;99061.16;4970550;28;19937;-84
2022/07/30 12:26:23;;;;;;;;;;;;;;;24.17;100.00;99068.19;4972063;28;19926;-84
2022/07/30 12:28:51;;;;;;;;;;;;;;;23.72;100.00;99075.78;4971620;28;19934;-84
2022/07/30 12:31:18;;;;;;;;;;;;;;;24.13;100.00;99067.66;4971384;28;19976;-85
2022/07/30 12:33:45;;;;;;;;;;;;;;;24.20;100.00;99064.31;4972171;28;19933;-85
2022/07/30 12:36:24;;;;;;;;;;;;;;;23.79;100.00;99075.31;4970421;28;21027;-84
2022/07/30 12:38:53;;;;;;;;;;;;;;;24.23;100.00;99074.69;4970253;28;19995;-85
2022/07/30 12:41:21;;;;;;;;;;;;;;;23.97;100.00;99069.19;4954370;28;19980;-83
2022/07/30 12:43:52;;;;;;;;;;;;;;;23.69;100.00;99076.81;4954590;28;19926;-84
2022/07/30 12:46:25;;;;;;;;;;;;;;;23.47;100.00;99075.94;4971943;28;19988;-84
2022/07/30 12:48:53;;;;;;;;;;;;;;;23.16;100.00;99079.63;4971568;28;19977;-85
2022/07/30 12:51:22;;;;;;;;;;;;;;;23.60;100.00;99079.91;4970917;28;20408;-84
2022/07/30 12:53:50;;;;;;;;;;;;;;;23.83;100.00;99075.84;4953663;28;20382;-84
2022/07/30 12:56:19;;;;;;;;;;;;;;;23.80;100.00;99070.38;4969693;28;19930;-84
2022/07/30 12:58:46;;;;;;;;;;;;;;;23.92;100.00;99060.56;4969118;28;19926;-84
2022/07/30 13:01:13;;;;;;;;;;;;;;;23.53;100.00;99068.19;4969143;28;20024;-85
2022/07/30 13:03:40;;;;;;;;;;;;;;;23.67;100.00;99072.94;4969823;28;19934;-84